Time;durP1;ratioP1;P1;durP2;ratioP2;P2;SDS_P1;SDS_P2;PMS_P1;PMS_P2;Temp;Humidity;BMP_temperature;BMP_pressure;BME280_temperature;BME280_humidity;BME280_pressure;Samples;Min_cycle;Max_cycle;Signal;HPM_P1;HPM_P2
2023/04/20 08:06:18;;;;;;;25.15;5.22;;;;;;;8.01;62.68;101658.41;5109433;27;20377;-74
2023/04/20 08:08:44;;;;;;;10.00;4.50;;;;;;;8.05;63.36;101665.09;5100337;28;20029;-72
2023/04/20 08:11:09;;;;;;;31.20;5.78;;;;;;;8.08;64.00;101659.34;5089379;28;20028;-72
2023/04/20 08:13:36;;;;;;;20.75;6.15;;;;;;;8.11;64.75;101660.81;5098454;28;20030;-75
2023/04/20 08:16:01;;;;;;;24.45;5.60;;;;;;;8.17;65.40;101660.06;5109761;28;20031;-74
2023/04/20 08:18:29;;;;;;;9.90;4.72;;;;;;;8.24;64.95;101655.56;5107030;28;20036;-74
2023/04/20 08:20:54;;;;;;;23.88;5.28;;;;;;;8.30;65.96;101656.69;5108068;28;20111;-76
2023/04/20 08:23:19;;;;;;;17.52;4.68;;;;;;;8.38;65.81;101661.13;5108249;28;20114;-72
2023/04/20 08:25:45;;;;;;;13.90;4.30;;;;;;;8.45;65.85;101644.00;5109336;28;20058;-74
2023/04/20 08:28:10;;;;;;;8.55;4.53;;;;;;;8.52;65.85;101657.59;5109784;28;20475;-73
2023/04/20 08:30:39;;;;;;;10.32;4.55;;;;;;;8.56;65.97;101645.38;5100801;28;20059;-75
2023/04/20 08:33:05;;;;;;;11.65;4.80;;;;;;;8.61;66.40;101647.50;5089022;28;20090;-77
2023/04/20 08:35:30;;;;;;;10.95;4.80;;;;;;;8.64;65.12;101628.25;5087711;28;20476;-73
2023/04/20 08:37:56;;;;;;;12.45;4.03;;;;;;;8.73;64.95;101628.94;5089457;28;20074;-77
2023/04/20 08:40:23;;;;;;;11.02;4.10;;;;;;;8.79;64.25;101628.16;5091946;28;20035;-75
2023/04/20 08:42:48;;;;;;;17.48;4.55;;;;;;;8.86;64.75;101620.94;5109456;28;20117;-73
2023/04/20 08:45:13;;;;;;;20.75;4.80;;;;;;;8.94;64.63;101625.41;5109130;28;20024;-76
2023/04/20 08:47:39;;;;;;;11.48;4.55;;;;;;;8.97;64.47;101619.59;5107996;28;20042;-74
2023/04/20 08:50:05;;;;;;;17.80;4.60;;;;;;;9.01;64.49;101629.81;5107630;28;20032;-72
2023/04/20 08:52:31;;;;;;;14.30;4.30;;;;;;;8.98;63.94;101619.41;5109213;28;20073;-75
2023/04/20 08:54:57;;;;;;;7.95;4.32;;;;;;;8.96;64.17;101624.16;5107312;28;20028;-74
2023/04/20 08:57:22;;;;;;;21.13;4.40;;;;;;;9.01;64.09;101620.84;5088664;28;20074;-74
2023/04/20 08:59:48;;;;;;;17.70;4.40;;;;;;;9.02;64.16;101620.66;5089526;28;20359;-73
2023/04/20 09:02:13;;;;;;;26.30;5.25;;;;;;;9.04;64.78;101606.97;5086450;28;20020;-74
2023/04/20 09:04:39;;;;;;;38.10;6.07;;;;;;;9.05;64.54;101611.34;5101216;28;20135;-70
2023/04/20 09:07:06;;;;;;;18.55;5.25;;;;;;;9.07;64.36;101608.44;5108829;28;20467;-72
2023/04/20 09:09:32;;;;;;;8.15;3.80;;;;;;;9.07;64.11;101598.47;5109356;28;20031;-71
2023/04/20 09:12:05;;;;;;;24.13;4.65;;;;;;;9.05;64.12;101606.78;5109382;28;20028;-75
2023/04/20 09:14:42;;;;;;;14.02;4.88;;;;;;;9.04;64.46;101605.13;5095777;28;20115;-73
2023/04/20 09:17:09;;;;;;;11.85;4.13;;;;;;;9.02;65.14;101606.34;5078407;28;20033;-75
2023/04/20 09:19:34;;;;;;;27.10;3.75;;;;;;;9.01;64.87;101602.81;5074160;28;20055;-74
2023/04/20 09:22:04;;;;;;;10.13;4.07;;;;;;;9.05;63.67;101606.78;5075156;28;20029;-70
2023/04/20 09:24:35;;;;;;;12.93;4.10;;;;;;;9.08;65.01;101604.72;5086690;28;20097;-74
2023/04/20 09:27:22;;;;;;;20.75;4.68;;;;;;;9.08;63.60;101607.44;5079024;28;20090;-70
2023/04/20 09:30:02;;;;;;;17.98;4.07;;;;;;;9.17;64.51;101611.66;5073663;28;20063;-75
2023/04/20 09:32:28;;;;;;;40.55;4.97;;;;;;;9.17;62.84;101609.78;5074806;28;20033;-68
2023/04/20 09:34:54;;;;;;;69.50;7.28;;;;;;;9.25;64.54;101603.38;5090314;28;20031;-73
2023/04/20 09:37:21;;;;;;;6.75;3.70;;;;;;;9.34;63.67;101604.88;5095120;28;20060;-69
2023/04/20 09:39:47;;;;;;;31.95;4.72;;;;;;;9.37;63.64;101607.19;5094994;28;20028;-72
2023/04/20 09:42:15;;;;;;;15.85;4.18;;;;;;;9.39;64.38;101612.41;5076768;28;20025;-70
2023/04/20 09:44:42;;;;;;;15.93;4.75;;;;;;;9.41;63.33;101604.94;5074907;28;20353;-74
2023/04/20 09:47:08;;;;;;;9.55;4.30;;;;;;;9.37;63.85;101604.50;5074398;28;20036;-74
2023/04/20 09:49:34;;;;;;;22.63;4.78;;;;;;;9.30;63.63;101598.22;5088685;28;20116;-72
2023/04/20 09:52:03;;;;;;;17.75;3.78;;;;;;;9.30;61.85;101602.78;5094816;28;20095;-72
2023/04/20 09:54:30;;;;;;;13.65;3.88;;;;;;;9.26;62.68;101588.03;5093416;28;20371;-74
2023/04/20 09:56:58;;;;;;;7.50;3.65;;;;;;;9.23;63.12;101587.38;5093686;28;20019;-73
2023/04/20 09:59:25;;;;;;;52.30;5.90;;;;;;;9.25;62.48;101592.56;5079784;28;20363;-70
2023/04/20 10:01:50;;;;;;;33.15;4.78;;;;;;;9.24;62.71;101580.13;5072288;28;20025;-72
2023/04/20 10:04:16;;;;;;;11.20;3.72;;;;;;;9.32;62.21;101574.56;5073964;28;20530;-72
2023/04/20 10:06:53;;;;;;;11.50;4.07;;;;;;;9.47;63.11;101570.91;5074276;28;20444;-73
2023/04/20 10:09:24;;;;;;;6.22;3.80;;;;;;;9.60;61.14;101570.94;5073905;28;20105;-76
2023/04/20 10:11:51;;;;;;;6.93;3.60;;;;;;;9.71;62.03;101564.16;5074527;28;20020;-73
2023/04/20 10:14:18;;;;;;;9.25;3.92;;;;;;;9.82;60.93;101573.56;5074404;28;20032;-74
2023/04/20 10:16:45;;;;;;;21.58;4.82;;;;;;;9.84;60.39;101574.16;5084250;28;20039;-76
2023/04/20 10:19:11;;;;;;;10.55;4.15;;;;;;;9.81;60.54;101572.69;5094262;28;20056;-72
2023/04/20 10:21:48;;;;;;;16.90;4.22;;;;;;;9.86;60.41;101569.41;5094222;28;20024;-74
2023/04/20 10:24:14;;;;;;;7.85;3.63;;;;;;;9.82;58.94;101573.56;5094101;28;20024;-70
2023/04/20 10:26:42;;;;;;;17.08;4.13;;;;;;;9.76;57.99;101576.00;5093347;28;20356;-73
2023/04/20 10:29:08;;;;;;;6.60;3.78;;;;;;;9.74;58.93;101572.69;5091767;28;20039;-72
2023/04/20 10:31:37;;;;;;;6.15;3.92;;;;;;;9.67;60.54;101571.81;5094283;28;20115;-75
2023/04/20 10:34:09;;;;;;;8.55;4.10;;;;;;;9.66;62.21;101567.47;5094409;28;20115;-78
2023/04/20 10:36:36;;;;;;;;;;;;;;;9.73;60.47;101568.31;5074340;28;20045;-69
2023/04/20 10:39:15;;;;;;;11.52;3.95;;;;;;;9.56;61.48;101565.13;5093805;28;20305;-70
2023/04/20 10:42:00;;;;;;;26.27;4.65;;;;;;;9.52;61.18;101558.44;5091018;28;20016;-74
2023/04/20 10:44:26;;;;;;;21.92;5.45;;;;;;;9.51;62.65;101561.34;5090951;28;20060;-71
2023/04/20 10:46:53;;;;;;;7.75;4.00;;;;;;;9.56;62.38;101543.50;5093241;28;20446;-71
2023/04/20 10:49:18;;;;;;;12.32;4.90;;;;;;;9.68;61.02;101546.47;5093401;28;20024;-71
2023/04/20 10:51:51;;;;;;;6.72;4.38;;;;;;;9.80;62.06;101540.47;5093361;28;20030;-73
2023/04/20 10:54:17;;;;;;;6.93;3.85;;;;;;;9.92;60.96;101547.78;5091939;28;20411;-72
2023/04/20 10:56:43;;;;;;;6.40;4.20;;;;;;;10.04;60.03;101550.75;5088450;28;20035;-71
2023/04/20 10:59:20;;;;;;;8.73;4.55;;;;;;;10.06;59.77;101553.25;5072795;28;20024;-72
2023/04/20 11:01:46;;;;;;;16.73;4.78;;;;;;;10.04;59.56;101544.47;5070377;28;20029;-73
2023/04/20 11:04:12;;;;;;;7.75;4.50;;;;;;;9.99;59.14;101542.41;5072130;28;20040;-69
2023/04/20 11:06:39;;;;;;;9.88;5.07;;;;;;;9.96;59.92;101547.38;5071408;28;20029;-75
2023/04/20 11:09:27;;;;;;;9.85;4.63;;;;;;;9.97;59.41;101543.66;5072794;28;20056;-70
2023/04/20 11:12:10;;;;;;;7.72;4.30;;;;;;;9.89;59.84;101539.28;5085578;28;20389;-70
2023/04/20 11:14:38;;;;;;;12.50;4.70;;;;;;;9.85;61.04;101535.28;5091659;28;20560;-69
2023/04/20 11:17:04;;;;;;;8.50;4.68;;;;;;;9.75;61.16;101546.47;5092940;28;20123;-74
2023/04/20 11:19:32;;;;;;;18.42;5.00;;;;;;;9.72;61.61;101533.38;5092911;28;20511;-75
2023/04/20 11:21:58;;;;;;;11.13;4.65;;;;;;;9.78;61.79;101537.13;5093212;28;20031;-73
2023/04/20 11:24:29;;;;;;;7.43;4.90;;;;;;;9.79;62.53;101526.13;5090270;28;20074;-73
2023/04/20 11:26:56;;;;;;;16.60;5.90;;;;;;;9.91;62.30;101523.66;5092832;28;20028;-74
2023/04/20 11:29:36;;;;;;;30.02;6.50;;;;;;;9.96;62.09;101526.59;5089851;28;20020;-71
2023/04/20 11:32:09;;;;;;;21.73;5.40;;;;;;;10.05;62.44;101513.72;5092710;28;20059;-80
2023/04/20 11:38:10;;;;;;;13.40;5.18;;;;;;;10.08;61.11;101506.03;5074221;28;20131;-73
2023/04/20 11:40:35;;;;;;;16.88;5.35;;;;;;;9.97;60.22;101514.75;5087982;28;20044;-72
2023/04/20 11:43:03;;;;;;;20.75;5.60;;;;;;;9.90;62.09;101511.19;5072602;28;20023;-73
2023/04/20 11:45:32;;;;;;;30.85;6.32;;;;;;;9.79;61.67;101501.78;5081384;28;20012;-72
2023/04/20 11:47:58;;;;;;;7.97;4.93;;;;;;;9.73;62.09;101506.13;5092951;28;20024;-71
2023/04/20 11:50:24;;;;;;;17.58;5.05;;;;;;;9.72;62.44;101504.50;5092731;28;20024;-70
2023/04/20 11:52:49;;;;;;;11.70;4.90;;;;;;;9.74;63.05;101502.41;5092908;28;20367;-74
2023/04/20 11:55:15;;;;;;;6.88;4.60;;;;;;;9.87;65.06;101495.38;5086204;28;20115;-74
2023/04/20 11:57:40;;;;;;;11.15;5.32;;;;;;;10.03;62.22;101500.41;5074325;28;20460;-73
2023/04/20 12:00:06;;;;;;;7.57;5.05;;;;;;;10.20;62.41;101484.59;5072141;28;20020;-75
2023/04/20 12:02:32;;;;;;;12.32;5.10;;;;;;;10.35;61.35;101495.25;5069848;28;20024;-73
2023/04/20 12:05:00;;;;;;;20.10;5.45;;;;;;;10.31;60.47;101502.09;5076868;28;20104;-71
2023/04/20 12:07:26;;;;;;;14.85;4.82;;;;;;;10.10;61.83;101501.25;5081858;28;20028;-73
2023/04/20 12:09:52;;;;;;;9.73;5.60;;;;;;;9.96;67.72;101498.72;5072552;28;20044;-76
2023/04/20 12:12:17;;;;;;;25.67;6.10;;;;;;;9.84;71.90;101517.41;5072116;28;20468;-72
2023/04/20 12:14:42;;;;;;;9.60;5.28;;;;;;;9.72;77.94;101530.66;5073017;28;20421;-73
2023/04/20 12:17:08;;;;;;;8.05;5.57;;;;;;;9.59;88.46;101531.47;5073759;28;20028;-75
2023/04/20 12:19:33;;;;;;;8.77;6.20;;;;;;;9.44;95.86;101518.09;5072609;28;20027;-71
2023/04/20 12:21:58;;;;;;;7.65;5.78;;;;;;;9.32;96.27;101509.72;5072476;28;20030;-70
2023/04/20 12:24:24;;;;;;;8.73;6.22;;;;;;;9.29;98.26;101510.13;5082406;28;20363;-80
2023/04/20 12:26:49;;;;;;;7.55;5.97;;;;;;;9.53;100.00;101505.25;5092632;28;20031;-70
2023/04/20 12:29:15;;;;;;;9.07;6.90;;;;;;;9.82;100.00;101498.69;5089012;28;20026;-71
2023/04/20 12:31:41;;;;;;;8.05;6.90;;;;;;;10.14;100.00;101496.25;5091663;28;20066;-74
2023/04/20 12:34:06;;;;;;;12.55;6.60;;;;;;;10.37;100.00;101493.19;5084332;28;20025;-75
2023/04/20 12:36:33;;;;;;;7.15;5.72;;;;;;;10.52;88.29;101492.13;5070707;28;20086;-75
2023/04/20 12:38:59;;;;;;;9.73;5.82;;;;;;;10.66;85.39;101482.97;5070312;28;20020;-73
2023/04/20 12:41:24;;;;;;;6.80;5.35;;;;;;;10.79;81.82;101491.09;5070338;28;20112;-71
2023/04/20 12:43:50;;;;;;;6.55;5.55;;;;;;;10.87;74.54;101483.75;5074426;28;20093;-70
2023/04/20 12:46:18;;;;;;;13.60;5.82;;;;;;;10.95;72.26;101486.25;5084196;28;20074;-74
2023/04/20 12:48:44;;;;;;;10.38;5.30;;;;;;;11.00;69.60;101491.84;5072224;28;20029;-71
2023/04/20 12:51:11;;;;;;;19.63;5.95;;;;;;;10.98;67.13;101477.72;5072831;28;20024;-72
2023/04/20 12:53:36;;;;;;;9.60;5.35;;;;;;;10.87;67.89;101484.63;5075730;28;20056;-70
2023/04/20 12:56:01;;;;;;;16.85;5.57;;;;;;;10.95;67.92;101487.09;5076655;28;20063;-70
2023/04/20 12:58:27;;;;;;;10.93;5.40;;;;;;;11.02;67.57;101480.81;5081222;28;20090;-71
2023/04/20 13:00:52;;;;;;;11.88;5.72;;;;;;;11.04;68.16;101473.31;5073495;28;20023;-72
2023/04/20 13:03:17;;;;;;;8.38;5.82;;;;;;;11.04;68.56;101463.31;5074542;28;20025;-71
2023/04/20 13:05:43;;;;;;;19.27;6.50;;;;;;;11.03;66.70;101461.66;5075629;28;20036;-72
2023/04/20 13:08:09;;;;;;;10.57;5.68;;;;;;;10.95;68.92;101461.88;5093690;28;20032;-73
2023/04/20 13:10:35;;;;;;;7.18;5.63;;;;;;;10.82;68.91;101471.72;5094377;28;20081;-72
2023/04/20 13:13:01;;;;;;;7.40;5.78;;;;;;;10.64;70.17;101466.09;5087436;28;20111;-74
2023/04/20 13:15:26;;;;;;;7.57;5.80;;;;;;;10.51;72.14;101466.97;5075345;28;20427;-71
2023/04/20 13:17:51;;;;;;;7.82;5.80;;;;;;;10.44;74.53;101458.81;5090529;28;20035;-74
2023/04/20 13:20:17;;;;;;;8.77;6.32;;;;;;;10.39;73.02;101460.53;5093899;28;20474;-73
2023/04/20 13:22:42;;;;;;;7.10;5.65;;;;;;;10.34;70.68;101463.84;5095375;28;20065;-74
2023/04/20 13:25:08;;;;;;;8.45;5.63;;;;;;;10.34;69.45;101454.88;5095570;28;20024;-74
2023/04/20 13:27:33;;;;;;;7.82;5.70;;;;;;;10.43;68.55;101450.91;5094328;28;20024;-73
2023/04/20 13:29:59;;;;;;;13.65;6.85;;;;;;;10.54;68.06;101457.59;5095529;28;20036;-70
2023/04/20 13:32:25;;;;;;;34.72;6.72;;;;;;;10.57;64.92;101454.47;5094961;28;20028;-72
2023/04/20 13:34:50;;;;;;;43.05;7.25;;;;;;;10.57;64.63;101457.19;5094026;28;20043;-73
2023/04/20 13:37:16;;;;;;;15.65;5.70;;;;;;;10.54;64.93;101453.00;5083429;28;20036;-73
2023/04/20 13:39:41;;;;;;;7.32;5.30;;;;;;;10.49;64.38;101458.19;5074811;28;20032;-74
2023/04/20 13:42:07;;;;;;;52.55;8.02;;;;;;;10.42;65.46;101450.09;5074824;28;20067;-70
2023/04/20 13:44:33;;;;;;;14.48;6.32;;;;;;;10.34;65.11;101454.88;5074755;28;20024;-73
2023/04/20 13:46:58;;;;;;;18.10;5.97;;;;;;;10.21;64.68;101450.28;5081446;28;20085;-72
2023/04/20 13:49:23;;;;;;;8.30;6.10;;;;;;;10.17;65.53;101440.91;5083506;28;20032;-72
2023/04/20 13:51:49;;;;;;;9.05;6.40;;;;;;;10.17;66.52;101447.16;5074546;28;20112;-71
2023/04/20 13:54:14;;;;;;;8.95;6.10;;;;;;;10.21;64.75;101434.88;5074845;28;20048;-75
2023/04/20 13:56:40;;;;;;;10.38;6.10;;;;;;;10.16;64.20;101439.25;5072539;28;20024;-75
2023/04/20 13:59:05;;;;;;;8.20;6.00;;;;;;;10.15;64.54;101443.84;5075048;28;20452;-73
2023/04/20 14:01:52;;;;;;;6.85;6.15;;;;;;;10.17;65.43;101449.84;5073744;28;20111;-78
2023/04/20 14:04:19;;;;;;;7.40;5.70;;;;;;;10.20;64.40;101432.38;5073103;28;20136;-75
2023/04/20 14:06:46;;;;;;;10.00;6.55;;;;;;;10.18;65.88;101426.38;5073287;28;20032;-74
2023/04/20 14:09:11;;;;;;;8.52;5.97;;;;;;;10.22;64.22;101431.16;5084613;28;20085;-74
2023/04/20 14:11:36;;;;;;;12.30;6.18;;;;;;;10.27;65.23;101431.34;5092851;28;20016;-73
2023/04/20 14:14:02;;;;;;;7.70;5.95;;;;;;;10.35;65.84;101435.72;5093857;28;20043;-70
2023/04/20 14:16:27;;;;;;;10.48;6.65;;;;;;;10.46;65.90;101432.41;5092590;28;20125;-72
2023/04/20 14:18:52;;;;;;;7.30;6.60;;;;;;;10.54;64.14;101420.53;5091222;28;20543;-75
2023/04/20 14:21:18;;;;;;;11.23;6.18;;;;;;;10.63;62.20;101418.44;5072543;28;20052;-75
2023/04/20 14:23:43;;;;;;;8.68;5.63;;;;;;;10.75;59.46;101415.88;5073548;28;20046;-72
2023/04/20 14:26:08;;;;;;;10.02;5.88;;;;;;;10.93;59.36;101417.94;5088196;28;20043;-76
2023/04/20 14:28:34;;;;;;;6.10;5.50;;;;;;;10.96;57.58;101409.38;5072515;28;20059;-72
2023/04/20 14:31:01;;;;;;;8.48;5.97;;;;;;;11.02;57.60;101416.66;5073532;28;20082;-74
2023/04/20 14:33:27;;;;;;;6.95;5.80;;;;;;;11.03;56.81;101412.91;5073003;28;20023;-72
2023/04/20 14:35:52;;;;;;;5.72;5.15;;;;;;;11.01;56.96;101412.28;5073457;28;20028;-71
2023/04/20 14:38:17;;;;;;;6.65;5.90;;;;;;;11.07;58.19;101416.03;5090402;28;20020;-73
2023/04/20 14:40:43;;;;;;;7.70;5.55;;;;;;;11.05;58.01;101404.56;5092204;28;20069;-74
2023/04/20 14:43:08;;;;;;;8.98;5.90;;;;;;;10.96;58.50;101407.50;5092347;28;20032;-72
2023/04/20 14:45:33;;;;;;;8.15;5.90;;;;;;;10.94;59.08;101411.47;5092808;28;20055;-73
2023/04/20 14:47:59;;;;;;;11.00;6.28;;;;;;;10.92;57.03;101403.56;5093748;28;20109;-71
2023/04/20 14:50:30;;;;;;;7.18;5.30;;;;;;;10.94;55.42;101398.75;5092395;28;20024;-72
2023/04/20 14:52:56;;;;;;;;;;;;;;;11.06;57.55;101414.34;5094372;28;20020;-71
2023/04/20 14:55:24;;;;;;;6.05;5.10;;;;;;;10.92;56.07;101405.44;5076406;28;19908;-71
2023/04/20 14:57:54;;;;;;;6.78;5.28;;;;;;;10.88;56.12;101405.03;5071893;28;20020;-75
2023/04/20 15:00:22;;;;;;;6.65;5.22;;;;;;;10.82;56.16;101409.44;5072841;28;20494;-72
2023/04/20 15:02:47;;;;;;;6.20;5.60;;;;;;;10.79;57.00;101407.16;5072171;28;20020;-73
2023/04/20 15:05:12;;;;;;;5.60;5.05;;;;;;;10.77;56.76;101406.53;5087913;28;20043;-75
2023/04/20 15:07:38;;;;;;;6.95;5.50;;;;;;;10.76;56.67;101401.31;5093044;28;20023;-73
2023/04/20 15:10:04;;;;;;;5.97;5.38;;;;;;;10.74;56.46;101404.25;5092227;28;20194;-71
2023/04/20 15:12:29;;;;;;;7.75;6.30;;;;;;;10.75;57.09;101407.78;5093101;28;20062;-75
2023/04/20 15:14:54;;;;;;;8.10;5.50;;;;;;;10.73;57.53;101402.56;5091654;28;20066;-71
2023/04/20 15:17:20;;;;;;;7.25;5.70;;;;;;;10.76;57.50;101399.44;5093520;28;20024;-74
2023/04/20 15:19:45;;;;;;;8.27;5.93;;;;;;;10.77;57.90;101395.69;5093594;28;20028;-74
2023/04/20 15:22:11;;;;;;;8.48;5.50;;;;;;;10.74;56.40;101395.31;5093467;28;20428;-75
2023/04/20 15:24:46;;;;;;;8.90;5.88;;;;;;;10.74;57.17;101387.19;5092570;28;20024;-77
2023/04/20 15:27:11;;;;;;;7.32;5.90;;;;;;;10.81;57.52;101390.69;5093549;28;20028;-71
2023/04/20 15:29:37;;;;;;;11.50;6.20;;;;;;;10.82;56.18;101387.78;5092918;28;20016;-73
2023/04/20 15:32:02;;;;;;;10.73;5.82;;;;;;;10.87;56.54;101381.72;5092942;28;20024;-73
2023/04/20 15:34:28;;;;;;;7.93;5.53;;;;;;;10.94;56.53;101384.41;5081897;28;20036;-72
2023/04/20 15:36:53;;;;;;;6.57;5.97;;;;;;;10.99;57.71;101381.88;5072076;28;20028;-70
2023/04/20 15:39:18;;;;;;;9.27;5.78;;;;;;;11.06;56.76;101382.66;5072607;28;20070;-74
2023/04/20 15:41:44;;;;;;;12.82;5.65;;;;;;;11.05;54.31;101382.88;5072100;28;20063;-76
2023/04/20 15:44:09;;;;;;;6.35;5.75;;;;;;;10.93;54.39;101380.00;5076524;28;20039;-72
2023/04/20 15:46:36;;;;;;;7.03;5.78;;;;;;;10.90;55.12;101388.56;5090958;28;20060;-73
2023/04/20 15:49:02;;;;;;;11.13;5.45;;;;;;;10.81;55.55;101383.41;5091086;28;20425;-73
2023/04/20 15:51:27;;;;;;;7.65;5.90;;;;;;;10.75;54.84;101378.84;5092226;28;20024;-72
2023/04/20 15:53:53;;;;;;;10.85;6.88;;;;;;;10.73;55.88;101380.91;5088674;28;20379;-74
2023/04/20 15:56:20;;;;;;;9.52;6.07;;;;;;;10.70;55.53;101377.81;5075979;28;20028;-73
2023/04/20 15:58:48;;;;;;;7.88;6.28;;;;;;;10.70;55.70;101380.53;5083813;28;20031;-71
2023/04/20 16:01:13;;;;;;;6.90;6.20;;;;;;;10.72;55.69;101389.25;5068382;28;20020;-72
